createdAt,value
2023-09-07T00:00:44.495Z,74.83
2023-09-07T00:03:42.911Z,75.04
2023-09-07T00:06:15.380Z,74.76
2023-09-07T00:08:47.570Z,74.60
2023-09-07T00:11:19.572Z,74.11
2023-09-07T00:13:52.207Z,74.86
2023-09-07T00:16:24.499Z,74.29
2023-09-07T00:18:56.683Z,74.75
2023-09-07T00:21:29.231Z,75.12
2023-09-07T00:24:05.630Z,75.31
2023-09-07T00:26:38.038Z,75.35
2023-09-07T00:29:10.029Z,76.45
2023-09-07T00:31:42.995Z,76.28
2023-09-07T00:34:15.318Z,75.11
2023-09-07T00:36:47.412Z,75.19
2023-09-07T00:39:19.471Z,75.34
2023-09-07T00:41:51.848Z,75.34
2023-09-07T00:44:24.026Z,75.77
2023-09-07T00:46:56.502Z,75.35
2023-09-07T00:49:29.356Z,75.79
2023-09-07T00:52:01.950Z,77.19
2023-09-07T00:54:35.648Z,77.60
2023-09-07T00:57:08.834Z,78.55
2023-09-07T00:59:40.903Z,78.32
2023-09-07T01:02:13.638Z,79.07
2023-09-07T01:04:46.531Z,78.79
2023-09-07T01:07:23.626Z,80.62
2023-09-07T01:10:01.924Z,79.45
2023-09-07T01:12:34.501Z,78.13
2023-09-07T01:15:08.018Z,78.69
2023-09-07T01:17:41.027Z,79.00
2023-09-07T01:20:19.517Z,77.56
2023-09-07T01:22:52.069Z,77.33
2023-09-07T01:25:25.590Z,77.56
2023-09-07T01:27:57.807Z,76.88
2023-09-07T01:30:31.130Z,76.07
2023-09-07T01:33:03.890Z,77.73
2023-09-07T01:35:38.277Z,78.13
2023-09-07T01:38:10.519Z,77.56
2023-09-07T01:40:42.740Z,76.65
2023-09-07T01:43:14.854Z,76.68
2023-09-07T01:45:46.967Z,77.12
2023-09-07T01:48:19.272Z,77.82
2023-09-07T01:50:54.013Z,76.93
2023-09-07T01:53:26.237Z,76.05
2023-09-07T01:56:00.652Z,75.65
2023-09-07T01:58:33.339Z,75.37
2023-09-07T02:01:05.719Z,75.61
2023-09-07T02:03:38.070Z,75.41
2023-09-07T02:06:10.428Z,76.81
2023-09-07T02:08:43.118Z,78.43
2023-09-07T02:11:15.272Z,81.81
2023-09-07T02:13:49.224Z,83.24
2023-09-07T02:16:21.688Z,79.81
2023-09-07T02:19:01.832Z,78.91
2023-09-07T02:21:33.899Z,77.87
2023-09-07T02:24:06.802Z,77.46
2023-09-07T02:26:44.988Z,76.70
2023-09-07T02:29:17.639Z,76.50
2023-09-07T02:31:49.886Z,76.27
2023-09-07T02:34:22.186Z,75.91
2023-09-07T02:36:54.393Z,77.00
2023-09-07T02:39:27.354Z,78.65
2023-09-07T02:41:59.792Z,78.05
2023-09-07T02:44:32.076Z,77.89
2023-09-07T02:47:04.607Z,78.51
2023-09-07T02:49:36.930Z,78.90
2023-09-07T02:52:09.501Z,78.58
2023-09-07T02:54:43.088Z,79.07
2023-09-07T02:57:15.116Z,79.54
2023-09-07T02:59:47.972Z,78.51
2023-09-07T03:02:20.104Z,77.69
2023-09-07T03:05:00.213Z,78.49
2023-09-07T03:07:35.286Z,78.63
2023-09-07T03:10:07.913Z,78.34
2023-09-07T03:12:40.221Z,78.13
2023-09-07T03:15:13.475Z,78.69
2023-09-07T03:17:46.161Z,78.02
2023-09-07T03:20:19.416Z,77.51
2023-09-07T03:22:54.489Z,77.34
2023-09-07T03:25:27.284Z,77.27
2023-09-07T03:27:59.817Z,76.75
2023-09-07T03:30:32.166Z,76.18
2023-09-07T03:33:04.923Z,77.61
2023-09-07T03:35:37.143Z,77.02
2023-09-07T03:38:10.031Z,76.78
2023-09-07T03:40:42.078Z,76.23
2023-09-07T03:43:14.583Z,76.49
2023-09-07T03:45:46.726Z,77.22
2023-09-07T03:48:18.879Z,78.56
2023-09-07T03:50:50.933Z,77.88
2023-09-07T03:53:22.997Z,77.80
2023-09-07T03:55:55.081Z,77.43
2023-09-07T03:58:27.218Z,77.26
2023-09-07T04:01:02.615Z,76.86
2023-09-07T04:03:35.237Z,77.59
2023-09-07T04:06:07.822Z,78.85
2023-09-07T04:08:40.144Z,77.63
2023-09-07T04:11:12.142Z,77.21
2023-09-07T04:13:44.159Z,76.85
2023-09-07T04:16:16.176Z,76.58
2023-09-07T04:18:48.318Z,76.65
2023-09-07T04:21:20.407Z,77.30
2023-09-07T04:23:52.696Z,77.81
2023-09-07T04:26:24.895Z,78.65
2023-09-07T04:28:56.975Z,79.40
2023-09-07T04:31:29.496Z,78.72
2023-09-07T04:34:03.863Z,78.29
2023-09-07T04:36:36.008Z,77.79
2023-09-07T04:39:08.866Z,77.30
2023-09-07T04:41:40.923Z,76.86
2023-09-07T04:44:13.071Z,76.26
2023-09-07T04:46:45.749Z,76.56
2023-09-07T04:49:17.975Z,77.76
2023-09-07T04:51:50.855Z,76.68
2023-09-07T04:54:22.960Z,77.60
2023-09-07T04:56:54.983Z,77.85
2023-09-07T04:59:27.464Z,77.10
2023-09-07T05:02:03.752Z,77.47
2023-09-07T05:04:36.448Z,79.17
2023-09-07T05:07:09.254Z,79.20
2023-09-07T05:09:41.967Z,78.69
2023-09-07T05:12:15.660Z,79.26
2023-09-07T05:14:48.038Z,79.23
2023-09-07T05:17:20.151Z,79.13
2023-09-07T05:19:52.295Z,79.37
2023-09-07T05:22:24.541Z,79.08
2023-09-07T05:24:56.730Z,79.62
2023-09-07T05:27:28.806Z,78.95
2023-09-07T05:30:00.932Z,78.45
2023-09-07T05:32:33.489Z,78.50
2023-09-07T05:35:07.023Z,78.44
2023-09-07T05:37:39.791Z,78.40
2023-09-07T05:40:13.747Z,78.47
2023-09-07T05:42:45.937Z,78.17
2023-09-07T05:45:18.377Z,78.59
2023-09-07T05:47:50.991Z,78.16
2023-09-07T05:50:23.503Z,78.02
2023-09-07T05:52:56.178Z,77.95
2023-09-07T05:55:28.536Z,77.91
2023-09-07T05:58:03.463Z,77.69
2023-09-07T06:00:40.343Z,77.51
2023-09-07T06:03:13.055Z,77.40
2023-09-07T06:05:45.824Z,77.25
2023-09-07T06:08:18.477Z,77.42
2023-09-07T06:10:50.846Z,78.26
2023-09-07T06:13:22.944Z,77.89
2023-09-07T06:15:55.688Z,78.05
2023-09-07T06:18:28.268Z,78.15
2023-09-07T06:21:00.643Z,78.37
2023-09-07T06:23:33.012Z,78.61
2023-09-07T06:26:05.491Z,78.32
2023-09-07T06:28:37.916Z,78.37
2023-09-07T06:31:10.238Z,77.86
2023-09-07T06:33:42.804Z,77.73
2023-09-07T06:36:14.938Z,77.44
2023-09-07T06:38:47.236Z,77.60
2023-09-07T06:41:19.701Z,77.43
2023-09-07T06:43:51.877Z,77.04
2023-09-07T06:46:24.815Z,77.05
2023-09-07T06:48:57.762Z,76.43
2023-09-07T06:51:30.461Z,76.01
2023-09-07T06:54:02.804Z,75.56
2023-09-07T06:56:35.943Z,74.42
2023-09-07T06:59:08.714Z,74.12
2023-09-07T07:01:41.230Z,73.94
2023-09-07T07:04:13.673Z,73.73
2023-09-07T07:06:46.492Z,73.35
2023-09-07T07:09:18.996Z,73.22
2023-09-07T07:11:51.339Z,72.10
2023-09-07T07:14:23.505Z,71.39
2023-09-07T07:16:56.093Z,71.76
2023-09-07T07:19:28.660Z,70.77
2023-09-07T07:22:01.345Z,69.76
2023-09-07T07:24:34.380Z,69.18
2023-09-07T07:27:07.224Z,68.73
2023-09-07T07:29:40.729Z,68.05
2023-09-07T07:32:13.315Z,67.32
2023-09-07T07:34:45.817Z,66.40
2023-09-07T07:37:18.128Z,66.38
2023-09-07T07:39:50.500Z,65.50
2023-09-07T07:42:24.195Z,64.97
2023-09-07T07:44:56.784Z,64.61
2023-09-07T07:47:29.147Z,63.79
2023-09-07T07:50:01.550Z,63.12
2023-09-07T07:52:34.244Z,62.36
2023-09-07T07:55:07.568Z,62.37
2023-09-07T07:57:39.748Z,61.56
2023-09-07T08:00:14.873Z,60.71
2023-09-07T08:02:50.777Z,60.13
2023-09-07T08:05:23.233Z,60.39
2023-09-07T08:07:55.747Z,59.66
2023-09-07T08:10:30.143Z,59.51
2023-09-07T08:13:05.164Z,58.88
2023-09-07T08:15:38.346Z,58.42
2023-09-07T08:18:11.637Z,58.63
2023-09-07T08:20:44.163Z,57.96
2023-09-07T08:23:16.505Z,57.99
2023-09-07T08:25:48.822Z,57.09
2023-09-07T08:28:23.437Z,56.34
2023-09-07T08:30:56.388Z,56.04
2023-09-07T08:33:30.702Z,55.85
2023-09-07T08:36:02.956Z,54.97
2023-09-07T08:38:35.233Z,54.59
2023-09-07T08:41:08.727Z,55.12
2023-09-07T08:43:48.590Z,54.47
2023-09-07T08:46:22.831Z,53.02
2023-09-07T08:48:59.489Z,51.59
2023-09-07T08:51:34.023Z,52.36
2023-09-07T08:54:06.594Z,51.72
2023-09-07T08:56:39.520Z,50.65
2023-09-07T08:59:12.116Z,49.63
2023-09-07T09:01:44.716Z,49.21
2023-09-07T09:04:17.818Z,48.35
2023-09-07T09:06:50.078Z,48.25
2023-09-07T09:09:28.445Z,47.65
2023-09-07T09:12:10.553Z,46.50
2023-09-07T09:14:44.020Z,46.02
2023-09-07T09:17:19.455Z,45.80
2023-09-07T09:19:51.724Z,46.29
2023-09-07T09:22:25.678Z,46.10
2023-09-07T09:24:57.930Z,45.58
2023-09-07T09:27:30.024Z,45.69
2023-09-07T09:30:02.241Z,44.50
2023-09-07T09:32:34.653Z,43.72
2023-09-07T09:35:07.896Z,44.32
2023-09-07T09:37:48.534Z,43.99
2023-09-07T09:40:21.311Z,43.85
2023-09-07T09:42:57.324Z,42.49
2023-09-07T09:45:31.215Z,42.90
2023-09-07T09:48:05.181Z,42.18
2023-09-07T09:50:39.254Z,41.10
2023-09-07T09:53:17.169Z,41.97
2023-09-07T09:55:50.299Z,42.35
2023-09-07T09:58:23.340Z,41.90
2023-09-07T10:00:59.991Z,41.36
2023-09-07T10:03:34.700Z,41.61
2023-09-07T10:06:13.748Z,41.00
2023-09-07T10:08:56.933Z,40.84
2023-09-07T10:11:34.291Z,40.18
2023-09-07T10:14:08.378Z,39.26
2023-09-07T10:16:48.688Z,39.28
2023-09-07T10:19:22.210Z,39.52
2023-09-07T10:21:56.590Z,39.53
2023-09-07T10:24:30.276Z,38.40
2023-09-07T10:27:04.496Z,38.03
2023-09-07T10:29:47.418Z,38.76
2023-09-07T10:32:20.561Z,39.13
2023-09-07T10:34:54.209Z,37.93
2023-09-07T10:37:32.945Z,37.66
2023-09-07T10:40:05.570Z,36.69
2023-09-07T10:42:37.989Z,35.95
2023-09-07T10:45:18.998Z,36.01
2023-09-07T10:47:51.788Z,36.00
2023-09-07T10:50:24.317Z,36.45
2023-09-07T10:52:57.930Z,36.79
2023-09-07T10:55:30.217Z,35.98
2023-09-07T10:58:02.883Z,36.33
2023-09-07T11:00:35.387Z,35.17
2023-09-07T11:03:16.263Z,35.36
2023-09-07T11:05:49.390Z,34.97
2023-09-07T11:08:21.970Z,35.34
2023-09-07T11:10:55.292Z,34.45
2023-09-07T11:13:28.625Z,33.00
2023-09-07T11:16:01.691Z,33.00
2023-09-07T11:18:37.335Z,32.84
2023-09-07T11:21:09.833Z,33.11
2023-09-07T11:23:42.260Z,33.27
2023-09-07T11:26:17.175Z,32.15
2023-09-07T11:28:50.611Z,31.44
2023-09-07T11:31:24.018Z,30.56
2023-09-07T11:33:57.734Z,30.53
2023-09-07T11:36:29.941Z,30.18
2023-09-07T11:39:02.209Z,29.93
2023-09-07T11:41:34.472Z,28.97
2023-09-07T11:44:06.892Z,28.95
2023-09-07T11:46:39.522Z,29.24
2023-09-07T11:49:11.757Z,29.75
2023-09-07T11:51:44.003Z,28.53
2023-09-07T11:54:16.230Z,28.22
2023-09-07T11:56:48.707Z,27.90
2023-09-07T11:59:20.767Z,27.40
2023-09-07T12:01:53.124Z,27.00
2023-09-07T12:04:25.377Z,27.26
2023-09-07T12:06:57.468Z,26.48
2023-09-07T12:09:29.545Z,26.88
2023-09-07T12:12:02.116Z,25.63
2023-09-07T12:14:35.183Z,24.25
2023-09-07T12:17:07.681Z,25.58
2023-09-07T12:19:43.089Z,25.24
2023-09-07T12:22:15.254Z,25.00
2023-09-07T12:24:49.830Z,24.02
2023-09-07T12:27:25.760Z,24.23
2023-09-07T12:29:58.402Z,23.68
2023-09-07T12:32:30.536Z,22.91
2023-09-07T12:35:03.308Z,22.03
2023-09-07T12:37:35.280Z,21.28
2023-09-07T12:40:12.786Z,20.96
2023-09-07T12:42:46.721Z,20.58
2023-09-07T12:45:18.923Z,19.95
2023-09-07T12:47:51.118Z,18.85
2023-09-07T12:50:24.635Z,18.59
2023-09-07T12:52:56.790Z,17.89
2023-09-07T12:55:31.015Z,18.33
2023-09-07T12:58:03.146Z,17.98
2023-09-07T13:00:35.879Z,18.51
2023-09-07T13:03:09.074Z,18.28
2023-09-07T13:05:41.852Z,17.21
2023-09-07T13:08:14.363Z,17.84
2023-09-07T13:10:46.485Z,16.85
2023-09-07T13:13:18.604Z,17.04
2023-09-07T13:15:50.741Z,18.08
2023-09-07T13:18:22.961Z,18.28
2023-09-07T13:21:00.775Z,17.92
2023-09-07T13:23:33.803Z,17.13
2023-09-07T13:26:06.034Z,16.50
2023-09-07T13:28:38.081Z,16.69
2023-09-07T13:31:10.474Z,17.09
2023-09-07T13:33:42.604Z,15.75
2023-09-07T13:36:14.675Z,16.11
2023-09-07T13:38:46.709Z,16.09
2023-09-07T13:41:18.707Z,15.41
2023-09-07T13:43:51.075Z,15.66
2023-09-07T13:46:24.810Z,14.78
2023-09-07T13:48:57.495Z,15.27
2023-09-07T13:51:33.016Z,15.14
2023-09-07T13:54:05.210Z,14.84
2023-09-07T13:56:38.565Z,14.46
2023-09-07T13:59:11.058Z,14.46
2023-09-07T14:01:43.247Z,14.16
2023-09-07T14:04:15.313Z,14.12
2023-09-07T14:06:48.225Z,13.95
2023-09-07T14:09:21.212Z,14.62
2023-09-07T14:11:53.224Z,14.68
2023-09-07T14:14:25.360Z,15.09
2023-09-07T14:16:59.699Z,15.04
2023-09-07T14:19:32.710Z,14.92
2023-09-07T14:22:04.857Z,14.98
2023-09-07T14:24:36.835Z,14.75
2023-09-07T14:27:10.164Z,14.62
2023-09-07T14:29:42.262Z,15.01
2023-09-07T14:32:14.482Z,14.80
2023-09-07T14:34:46.500Z,14.79
2023-09-07T14:37:18.839Z,14.74
2023-09-07T14:39:52.027Z,14.48
2023-09-07T14:42:24.026Z,14.90
2023-09-07T14:44:58.692Z,14.45
2023-09-07T14:47:31.100Z,15.30
2023-09-07T14:50:04.574Z,15.19
2023-09-07T14:52:41.965Z,15.15
2023-09-07T14:55:14.032Z,15.21
2023-09-07T14:57:46.367Z,14.98
2023-09-07T15:00:19.176Z,14.67
2023-09-07T15:02:51.336Z,15.04
2023-09-07T15:05:23.762Z,14.62
2023-09-07T15:07:55.957Z,14.60
2023-09-07T15:10:28.884Z,14.53
2023-09-07T15:13:00.984Z,15.05
2023-09-07T15:15:37.721Z,14.70
2023-09-07T15:18:10.729Z,15.14
2023-09-07T15:20:42.942Z,15.16
2023-09-07T15:23:15.028Z,15.69
2023-09-07T15:25:47.112Z,15.51
2023-09-07T15:28:21.523Z,16.95
2023-09-07T15:30:53.613Z,17.87
2023-09-07T15:33:26.091Z,19.30
2023-09-07T15:35:58.266Z,20.71
2023-09-07T15:38:31.400Z,22.05
2023-09-07T15:41:06.391Z,22.92
2023-09-07T15:43:38.492Z,24.31
2023-09-07T15:46:11.086Z,25.61
2023-09-07T15:48:43.213Z,25.68
2023-09-07T15:51:15.462Z,26.24
2023-09-07T15:53:47.550Z,27.48
2023-09-07T15:56:20.023Z,28.37
2023-09-07T15:58:52.065Z,28.35
2023-09-07T16:01:24.327Z,30.28
2023-09-07T16:03:56.519Z,30.18
2023-09-07T16:06:30.387Z,30.83
2023-09-07T16:09:02.756Z,32.70
2023-09-07T16:11:35.010Z,31.80
2023-09-07T16:14:07.904Z,32.40
2023-09-07T16:16:39.986Z,32.91
2023-09-07T16:19:12.076Z,33.91
2023-09-07T16:21:44.103Z,33.96
2023-09-07T16:24:17.288Z,35.20
2023-09-07T16:26:49.370Z,36.05
2023-09-07T16:29:21.434Z,36.03
2023-09-07T16:31:53.553Z,36.06
2023-09-07T16:34:28.091Z,36.69
2023-09-07T16:37:00.130Z,37.43
2023-09-07T16:39:32.208Z,38.56
2023-09-07T16:42:04.639Z,39.25
2023-09-07T16:44:36.802Z,38.92
2023-09-07T16:47:09.871Z,40.07
2023-09-07T16:49:41.998Z,39.59
2023-09-07T16:52:14.091Z,40.89
2023-09-07T16:54:46.152Z,41.50
2023-09-07T16:57:18.317Z,43.08
2023-09-07T16:59:57.285Z,42.40
2023-09-07T17:02:30.564Z,43.85
2023-09-07T17:05:04.136Z,44.09
2023-09-07T17:07:36.330Z,43.47
2023-09-07T17:10:10.256Z,44.72
2023-09-07T17:12:42.306Z,45.31
2023-09-07T17:15:15.435Z,47.05
2023-09-07T17:17:50.593Z,46.24
2023-09-07T17:20:23.066Z,46.00
2023-09-07T17:22:55.528Z,45.74
2023-09-07T17:25:27.565Z,47.27
2023-09-07T17:27:59.777Z,47.51
2023-09-07T17:30:35.591Z,48.04
2023-09-07T17:33:08.546Z,48.23
2023-09-07T17:35:40.835Z,48.42
2023-09-07T17:38:13.025Z,48.40
2023-09-07T17:40:45.238Z,49.45
2023-09-07T17:43:17.620Z,49.72
2023-09-07T17:45:49.768Z,50.55
2023-09-07T17:48:21.995Z,51.22
2023-09-07T17:50:54.233Z,51.82
2023-09-07T17:53:28.149Z,52.22
2023-09-07T17:56:00.283Z,53.32
2023-09-07T17:58:32.726Z,53.12
2023-09-07T18:01:05.758Z,54.28
2023-09-07T18:03:38.121Z,53.74
2023-09-07T18:06:10.825Z,54.11
2023-09-07T18:08:43.128Z,55.09
2023-09-07T18:11:15.372Z,55.16
2023-09-07T18:13:49.562Z,55.59
2023-09-07T18:16:24.995Z,56.37
2023-09-07T18:18:57.584Z,56.08
2023-09-07T18:21:30.400Z,55.98
2023-09-07T18:24:02.994Z,57.00
2023-09-07T18:26:35.188Z,56.81
2023-09-07T18:29:07.304Z,56.98
2023-09-07T18:31:40.643Z,57.71
2023-09-07T18:34:13.341Z,58.55
2023-09-07T18:36:45.594Z,57.86
2023-09-07T18:39:17.672Z,58.49
2023-09-07T18:41:49.889Z,60.27
2023-09-07T18:44:22.042Z,60.09
2023-09-07T18:46:54.846Z,59.89
2023-09-07T18:49:27.139Z,59.76
2023-09-07T18:51:59.313Z,60.16
2023-09-07T18:54:31.355Z,60.30
2023-09-07T18:57:03.529Z,61.07
2023-09-07T18:59:35.746Z,60.93
2023-09-07T19:02:08.005Z,62.06
2023-09-07T19:04:40.760Z,64.24
2023-09-07T19:07:15.584Z,62.60
2023-09-07T19:09:47.892Z,64.80
2023-09-07T19:12:20.235Z,65.38
2023-09-07T19:14:52.719Z,65.65
2023-09-07T19:17:25.381Z,65.60
2023-09-07T19:19:58.333Z,67.86
2023-09-07T19:22:32.074Z,69.22
2023-09-07T19:25:05.041Z,68.58
2023-09-07T19:27:37.161Z,68.01
2023-09-07T19:30:11.501Z,68.68
2023-09-07T19:32:43.679Z,69.38
2023-09-07T19:35:15.903Z,67.89
2023-09-07T19:37:48.475Z,66.24
2023-09-07T19:40:22.058Z,65.70
2023-09-07T19:42:54.362Z,64.42
2023-09-07T19:45:26.604Z,64.40
2023-09-07T19:47:58.973Z,65.38
2023-09-07T19:50:32.167Z,66.72
2023-09-07T19:53:04.364Z,65.49
2023-09-07T19:55:36.460Z,70.40
2023-09-07T19:58:08.720Z,70.41
2023-09-07T20:00:40.878Z,67.38
2023-09-07T20:03:13.301Z,69.98
2023-09-07T20:05:45.887Z,69.55
2023-09-07T20:08:18.089Z,73.09
2023-09-07T20:10:50.266Z,70.48
2023-09-07T20:13:22.355Z,71.39
2023-09-07T20:15:54.442Z,69.63
2023-09-07T20:18:26.752Z,68.42
2023-09-07T20:20:59.000Z,67.69
2023-09-07T20:23:33.692Z,68.95
2023-09-07T20:26:05.998Z,72.14
2023-09-07T20:28:38.290Z,72.56
2023-09-07T20:31:11.415Z,68.63
2023-09-07T20:33:44.050Z,67.70
2023-09-07T20:36:16.888Z,68.72
2023-09-07T20:38:49.144Z,69.03
2023-09-07T20:41:21.355Z,71.29
2023-09-07T20:43:53.561Z,70.61
2023-09-07T20:46:25.960Z,71.39
2023-09-07T20:48:58.250Z,72.80
2023-09-07T20:51:30.747Z,71.46
2023-09-07T20:54:04.121Z,70.58
2023-09-07T20:56:36.793Z,72.32
2023-09-07T20:59:09.021Z,72.75
2023-09-07T21:01:41.120Z,75.39
2023-09-07T21:04:13.187Z,77.69
2023-09-07T21:06:45.578Z,76.29
2023-09-07T21:09:17.950Z,74.99
2023-09-07T21:11:50.228Z,73.47
2023-09-07T21:14:22.622Z,73.64
2023-09-07T21:16:55.346Z,73.53
2023-09-07T21:19:27.643Z,73.17
2023-09-07T21:21:59.619Z,74.66
2023-09-07T21:24:31.951Z,72.03
2023-09-07T21:27:04.595Z,71.24
2023-09-07T21:29:36.916Z,71.90
2023-09-07T21:32:09.584Z,70.61
2023-09-07T21:34:41.876Z,70.42
2023-09-07T21:37:14.229Z,71.36
2023-09-07T21:39:51.240Z,71.96
2023-09-07T21:42:23.431Z,70.49
2023-09-07T21:44:55.672Z,70.13
2023-09-07T21:47:28.338Z,71.73
2023-09-07T21:50:01.011Z,71.13
2023-09-07T21:52:33.290Z,72.04
2023-09-07T21:55:05.844Z,71.47
2023-09-07T21:57:38.117Z,71.59
2023-09-07T22:00:13.416Z,71.27
2023-09-07T22:02:46.082Z,71.74
2023-09-07T22:05:18.405Z,78.38
2023-09-07T22:07:50.983Z,78.17
2023-09-07T22:10:23.356Z,77.94
2023-09-07T22:13:00.175Z,75.93
2023-09-07T22:15:32.644Z,73.90
2023-09-07T22:18:05.352Z,73.19
2023-09-07T22:20:37.883Z,72.26
2023-09-07T22:23:10.050Z,72.22
2023-09-07T22:25:42.305Z,71.88
2023-09-07T22:28:14.631Z,71.37
2023-09-07T22:30:46.903Z,71.57
2023-09-07T22:33:19.662Z,71.82
2023-09-07T22:35:51.832Z,71.92
2023-09-07T22:38:24.656Z,71.68
2023-09-07T22:41:00.012Z,72.48
2023-09-07T22:43:32.051Z,75.04
2023-09-07T22:46:04.042Z,76.84
2023-09-07T22:48:36.839Z,74.96
2023-09-07T22:51:09.677Z,74.90
2023-09-07T22:53:42.006Z,73.88
2023-09-07T22:56:14.340Z,73.78
2023-09-07T22:58:46.588Z,73.50
2023-09-07T23:01:19.043Z,73.28
2023-09-07T23:03:51.634Z,74.16
2023-09-07T23:06:24.167Z,73.48
2023-09-07T23:08:56.516Z,75.96
2023-09-07T23:11:28.734Z,78.09
2023-09-07T23:14:01.096Z,76.23
2023-09-07T23:16:37.576Z,75.89
2023-09-07T23:19:09.976Z,76.42
2023-09-07T23:21:42.415Z,77.54
2023-09-07T23:24:15.067Z,77.29
2023-09-07T23:26:47.501Z,78.21
2023-09-07T23:29:20.121Z,78.35
2023-09-07T23:31:52.787Z,76.29
2023-09-07T23:34:25.139Z,77.09
2023-09-07T23:36:58.813Z,77.13
2023-09-07T23:39:31.181Z,77.15
2023-09-07T23:42:03.383Z,77.03
2023-09-07T23:44:35.631Z,76.81
2023-09-07T23:47:08.159Z,77.30
2023-09-07T23:49:40.280Z,78.07
2023-09-07T23:52:12.381Z,78.74
2023-09-07T23:54:44.815Z,78.62
2023-09-07T23:57:16.891Z,78.26
2023-09-07T23:59:48.940Z,77.38
